RXA1813 YSSY-YSCB
Flight info
| Callsign | RXA1813 |
|---|---|
| Flight time | 0h 32m |
| Altitude | 16000 |
| Route | TESAT V169 CB |
| Aircraft | SF34/L-SBGRW/S |
Departure
| Time | 2026-04-21 06:20 |
|---|---|
| Airport | Sydney Kingsford Smith International Airport (YSSY) |
Arrival
| Time | 2026-04-21 06:53 |
|---|---|
| Airport | Canberra Airport (YSCB) |
| Time | Latitude | Longitude | Altitude | Speed | Heading |
|---|---|---|---|---|---|
| 2026-04-21 06:08 | -33.93678 | 151.18157 | 26 ft | 0 kts | 218° |
| 2026-04-21 06:17 | -33.93680 | 151.18156 | 26 ft | 1 kts | 190° |
| 2026-04-21 06:17 | -33.93717 | 151.18165 | 26 ft | 11 kts | 168° |
| 2026-04-21 06:17 | -33.93761 | 151.18113 | 26 ft | 11 kts | 249° |
| 2026-04-21 06:17 | -33.93780 | 151.18025 | 26 ft | 11 kts | 255° |
| 2026-04-21 06:18 | -33.93801 | 151.17940 | 26 ft | 10 kts | 252° |
| 2026-04-21 06:18 | -33.93822 | 151.17856 | 26 ft | 11 kts | 254° |
| 2026-04-21 06:18 | -33.93844 | 151.17761 | 26 ft | 13 kts | 256° |
| 2026-04-21 06:18 | -33.93870 | 151.17654 | 28 ft | 14 kts | 260° |
| 2026-04-21 06:19 | -33.93888 | 151.17571 | 25 ft | 0 kts | 255° |
| 2026-04-21 06:19 | -33.93889 | 151.17567 | 25 ft | 4 kts | 255° |
| 2026-04-21 06:19 | -33.93908 | 151.17483 | 24 ft | 14 kts | 253° |
| 2026-04-21 06:19 | -33.93967 | 151.17426 | 23 ft | 11 kts | 167° |
| 2026-04-21 06:20 | -33.94055 | 151.17450 | 22 ft | 30 kts | 168° |
| 2026-04-21 06:20 | -33.94512 | 151.17568 | 30 ft | 101 kts | 167° |
| 2026-04-21 06:20 | -33.95358 | 151.17789 | 83 ft | 146 kts | 169° |
| 2026-04-21 06:20 | -33.96394 | 151.18057 | 684 ft | 149 kts | 170° |
| 2026-04-21 06:21 | -33.97383 | 151.18245 | 1509 ft | 142 kts | 176° |
| 2026-04-21 06:21 | -33.98377 | 151.18185 | 2235 ft | 145 kts | 192° |
| 2026-04-21 06:21 | -33.99188 | 151.17438 | 2946 ft | 154 kts | 225° |
| 2026-04-21 06:21 | -33.99951 | 151.16560 | 3678 ft | 151 kts | 214° |
| 2026-04-21 06:22 | -34.00752 | 151.15715 | 4376 ft | 155 kts | 217° |
| 2026-04-21 06:22 | -34.01534 | 151.14825 | 5118 ft | 155 kts | 218° |
| 2026-04-21 06:22 | -34.02321 | 151.13923 | 5811 ft | 157 kts | 218° |
| 2026-04-21 06:22 | -34.03120 | 151.13008 | 6514 ft | 159 kts | 218° |
| 2026-04-21 06:23 | -34.03926 | 151.12086 | 7195 ft | 160 kts | 218° |
| 2026-04-21 06:23 | -34.04738 | 151.11157 | 7831 ft | 163 kts | 219° |
| 2026-04-21 06:23 | -34.05570 | 151.10203 | 8475 ft | 166 kts | 220° |
| 2026-04-21 06:23 | -34.06419 | 151.09229 | 9127 ft | 170 kts | 219° |
| 2026-04-21 06:24 | -34.07280 | 151.08243 | 9815 ft | 172 kts | 219° |
| 2026-04-21 06:24 | -34.08138 | 151.07259 | 10583 ft | 165 kts | 218° |
| 2026-04-21 06:24 | -34.08943 | 151.06332 | 11373 ft | 157 kts | 219° |
| 2026-04-21 06:24 | -34.09723 | 151.05440 | 12111 ft | 154 kts | 219° |
| 2026-04-21 06:25 | -34.10506 | 151.04543 | 12812 ft | 156 kts | 219° |
| 2026-04-21 06:25 | -34.11286 | 151.03648 | 13588 ft | 154 kts | 220° |
| 2026-04-21 06:25 | -34.12064 | 151.02756 | 14308 ft | 154 kts | 219° |
| 2026-04-21 06:25 | -34.12846 | 151.01859 | 14941 ft | 156 kts | 219° |
| 2026-04-21 06:26 | -34.13640 | 151.00944 | 15589 ft | 158 kts | 220° |
| 2026-04-21 06:26 | -34.14444 | 151.00021 | 16218 ft | 162 kts | 219° |
| 2026-04-21 06:26 | -34.15344 | 150.98996 | 16332 ft | 194 kts | 219° |
| 2026-04-21 06:26 | -34.16395 | 150.97787 | 16338 ft | 222 kts | 220° |
| 2026-04-21 06:27 | -34.17545 | 150.96457 | 16340 ft | 241 kts | 221° |
| 2026-04-21 06:27 | -34.18795 | 150.95014 | 16340 ft | 255 kts | 220° |
| 2026-04-21 06:27 | -34.20103 | 150.93508 | 16336 ft | 264 kts | 220° |
| 2026-04-21 06:27 | -34.21452 | 150.91953 | 16335 ft | 271 kts | 221° |
| 2026-04-21 06:28 | -34.22830 | 150.90365 | 16334 ft | 276 kts | 220° |
| 2026-04-21 06:28 | -34.24228 | 150.88755 | 16337 ft | 279 kts | 221° |
| 2026-04-21 06:28 | -34.25638 | 150.87129 | 16338 ft | 281 kts | 221° |
| 2026-04-21 06:28 | -34.27056 | 150.85488 | 16337 ft | 283 kts | 221° |
| 2026-04-21 06:29 | -34.28482 | 150.83840 | 16338 ft | 284 kts | 221° |
| 2026-04-21 06:29 | -34.29917 | 150.82188 | 16335 ft | 285 kts | 221° |
| 2026-04-21 06:29 | -34.31355 | 150.80528 | 16337 ft | 286 kts | 221° |
| 2026-04-21 06:29 | -34.32791 | 150.78860 | 16337 ft | 287 kts | 223° |
| 2026-04-21 06:30 | -34.34062 | 150.76993 | 16342 ft | 289 kts | 231° |
| 2026-04-21 06:30 | -34.35225 | 150.75004 | 16339 ft | 290 kts | 232° |
| 2026-04-21 06:30 | -34.36413 | 150.73037 | 16342 ft | 290 kts | 230° |
| 2026-04-21 06:30 | -34.37622 | 150.71086 | 16347 ft | 290 kts | 231° |
| 2026-04-21 06:31 | -34.38824 | 150.69122 | 16343 ft | 290 kts | 231° |
| 2026-04-21 06:31 | -34.40019 | 150.67153 | 16345 ft | 290 kts | 231° |
| 2026-04-21 06:31 | -34.41216 | 150.65186 | 16343 ft | 290 kts | 231° |
| 2026-04-21 06:31 | -34.42414 | 150.63223 | 16341 ft | 290 kts | 231° |
| 2026-04-21 06:32 | -34.43611 | 150.61257 | 16344 ft | 290 kts | 231° |
| 2026-04-21 06:32 | -34.44807 | 150.59291 | 16345 ft | 290 kts | 231° |
| 2026-04-21 06:32 | -34.46002 | 150.57321 | 16344 ft | 290 kts | 231° |
| 2026-04-21 06:32 | -34.47201 | 150.55356 | 16344 ft | 290 kts | 231° |
| 2026-04-21 06:33 | -34.48396 | 150.53391 | 16345 ft | 290 kts | 231° |
| 2026-04-21 06:33 | -34.49589 | 150.51421 | 16351 ft | 289 kts | 231° |
| 2026-04-21 06:33 | -34.50779 | 150.49458 | 16351 ft | 289 kts | 231° |
| 2026-04-21 06:33 | -34.51970 | 150.47497 | 16351 ft | 289 kts | 231° |
| 2026-04-21 06:34 | -34.53158 | 150.45537 | 16342 ft | 288 kts | 231° |
| 2026-04-21 06:34 | -34.54346 | 150.43575 | 16341 ft | 289 kts | 231° |
| 2026-04-21 06:34 | -34.55535 | 150.41613 | 16342 ft | 289 kts | 231° |
| 2026-04-21 06:34 | -34.56723 | 150.39647 | 16344 ft | 289 kts | 231° |
| 2026-04-21 06:35 | -34.57913 | 150.37682 | 16344 ft | 289 kts | 231° |
| 2026-04-21 06:35 | -34.59100 | 150.35716 | 16343 ft | 289 kts | 231° |
| 2026-04-21 06:35 | -34.60290 | 150.33747 | 16342 ft | 289 kts | 231° |
| 2026-04-21 06:35 | -34.61478 | 150.31781 | 16342 ft | 289 kts | 231° |
| 2026-04-21 06:36 | -34.62665 | 150.29813 | 16348 ft | 289 kts | 231° |
| 2026-04-21 06:36 | -34.63853 | 150.27845 | 16350 ft | 289 kts | 231° |
| 2026-04-21 06:36 | -34.65040 | 150.25874 | 16350 ft | 289 kts | 231° |
| 2026-04-21 06:36 | -34.66226 | 150.23905 | 16349 ft | 289 kts | 231° |
| 2026-04-21 06:37 | -34.67414 | 150.21933 | 16351 ft | 289 kts | 231° |
| 2026-04-21 06:37 | -34.68600 | 150.19961 | 16351 ft | 289 kts | 231° |
| 2026-04-21 06:37 | -34.69785 | 150.17990 | 16350 ft | 289 kts | 231° |
| 2026-04-21 06:37 | -34.70973 | 150.16017 | 16340 ft | 289 kts | 231° |
| 2026-04-21 06:38 | -34.72156 | 150.14044 | 16339 ft | 289 kts | 231° |
| 2026-04-21 06:38 | -34.73341 | 150.12072 | 16339 ft | 289 kts | 231° |
| 2026-04-21 06:38 | -34.74527 | 150.10096 | 16338 ft | 289 kts | 231° |
| 2026-04-21 06:38 | -34.75713 | 150.08119 | 16328 ft | 289 kts | 231° |
| 2026-04-21 06:39 | -34.76898 | 150.06151 | 16356 ft | 289 kts | 231° |
| 2026-04-21 06:39 | -34.78076 | 150.04173 | 16344 ft | 289 kts | 232° |
| 2026-04-21 06:39 | -34.79252 | 150.02194 | 16350 ft | 289 kts | 231° |
| 2026-04-21 06:39 | -34.80443 | 150.00221 | 16351 ft | 289 kts | 231° |
| 2026-04-21 06:40 | -34.80665 | 149.99853 | 16351 ft | 289 kts | 231° |
| 2026-04-21 06:40 | -34.81362 | 149.98690 | 16352 ft | 289 kts | 231° |
| 2026-04-21 06:40 | -34.82537 | 149.96716 | 16345 ft | 282 kts | 231° |
| 2026-04-21 06:40 | -34.83641 | 149.94862 | 16338 ft | 260 kts | 231° |
| 2026-04-21 06:41 | -34.84676 | 149.93134 | 16331 ft | 245 kts | 231° |
| 2026-04-21 06:41 | -34.85652 | 149.91504 | 16331 ft | 233 kts | 231° |
| 2026-04-21 06:41 | -34.86599 | 149.89919 | 16331 ft | 236 kts | 231° |
| 2026-04-21 06:41 | -34.87606 | 149.88240 | 16176 ft | 256 kts | 231° |
| 2026-04-21 06:42 | -34.88690 | 149.86416 | 15901 ft | 274 kts | 232° |
| 2026-04-21 06:42 | -34.89768 | 149.84435 | 15647 ft | 287 kts | 237° |
| 2026-04-21 06:42 | -34.90775 | 149.82294 | 15383 ft | 295 kts | 238° |
| 2026-04-21 06:42 | -34.91796 | 149.80139 | 15130 ft | 300 kts | 237° |
| 2026-04-21 06:43 | -34.92866 | 149.77938 | 14878 ft | 304 kts | 237° |
| 2026-04-21 06:43 | -34.93942 | 149.75712 | 14629 ft | 306 kts | 237° |
| 2026-04-21 06:43 | -34.95018 | 149.73467 | 14378 ft | 307 kts | 237° |
| 2026-04-21 06:43 | -34.96099 | 149.71215 | 14119 ft | 308 kts | 237° |
| 2026-04-21 06:44 | -34.97184 | 149.68957 | 13837 ft | 309 kts | 237° |
| 2026-04-21 06:44 | -34.98267 | 149.66701 | 13557 ft | 309 kts | 237° |
| 2026-04-21 06:44 | -34.99349 | 149.64445 | 13276 ft | 308 kts | 237° |
| 2026-04-21 06:44 | -35.00428 | 149.62189 | 12998 ft | 305 kts | 237° |
| 2026-04-21 06:45 | -35.01472 | 149.60004 | 12710 ft | 293 kts | 237° |
| 2026-04-21 06:45 | -35.02493 | 149.57880 | 12368 ft | 288 kts | 237° |
| 2026-04-21 06:45 | -35.03494 | 149.55788 | 12017 ft | 284 kts | 237° |
| 2026-04-21 06:45 | -35.04486 | 149.53717 | 11670 ft | 282 kts | 237° |
| 2026-04-21 06:46 | -35.05455 | 149.51650 | 11331 ft | 280 kts | 240° |
| 2026-04-21 06:46 | -35.06040 | 149.49377 | 10999 ft | 283 kts | 258° |
| 2026-04-21 06:46 | -35.06151 | 149.46973 | 10658 ft | 285 kts | 266° |
| 2026-04-21 06:46 | -35.06171 | 149.44561 | 10326 ft | 284 kts | 265° |
| 2026-04-21 06:47 | -35.06216 | 149.42158 | 9968 ft | 283 kts | 265° |
| 2026-04-21 06:47 | -35.06242 | 149.39759 | 9600 ft | 282 kts | 266° |
| 2026-04-21 06:47 | -35.06266 | 149.37371 | 9236 ft | 281 kts | 265° |
| 2026-04-21 06:47 | -35.06297 | 149.34991 | 8877 ft | 280 kts | 266° |
| 2026-04-21 06:48 | -35.06326 | 149.32621 | 8521 ft | 279 kts | 266° |
| 2026-04-21 06:48 | -35.06353 | 149.30258 | 8169 ft | 278 kts | 266° |
| 2026-04-21 06:48 | -35.06360 | 149.27909 | 7824 ft | 276 kts | 266° |
| 2026-04-21 06:48 | -35.06471 | 149.25579 | 7469 ft | 273 kts | 256° |
| 2026-04-21 06:49 | -35.07175 | 149.23485 | 7134 ft | 265 kts | 234° |
| 2026-04-21 06:49 | -35.08374 | 149.21837 | 6985 ft | 254 kts | 215° |
| 2026-04-21 06:49 | -35.09866 | 149.20815 | 6983 ft | 241 kts | 198° |
| 2026-04-21 06:49 | -35.11476 | 149.20426 | 6979 ft | 233 kts | 181° |
| 2026-04-21 06:50 | -35.13072 | 149.20356 | 6825 ft | 235 kts | 182° |
| 2026-04-21 06:50 | -35.14744 | 149.20241 | 6421 ft | 245 kts | 181° |
| 2026-04-21 06:50 | -35.16463 | 149.20139 | 6027 ft | 250 kts | 181° |
| 2026-04-21 06:50 | -35.18215 | 149.20008 | 5624 ft | 254 kts | 182° |
| 2026-04-21 06:51 | -35.19987 | 149.19896 | 5239 ft | 256 kts | 180° |
| 2026-04-21 06:51 | -35.21741 | 149.19835 | 4836 ft | 242 kts | 179° |
| 2026-04-21 06:51 | -35.23370 | 149.19780 | 4420 ft | 221 kts | 180° |
| 2026-04-21 06:51 | -35.24831 | 149.19712 | 3975 ft | 199 kts | 178° |
| 2026-04-21 06:52 | -35.26146 | 149.19645 | 3454 ft | 178 kts | 178° |
| 2026-04-21 06:52 | -35.27243 | 149.19586 | 2887 ft | 141 kts | 177° |
| 2026-04-21 06:52 | -35.28178 | 149.19468 | 2315 ft | 133 kts | 181° |
| 2026-04-21 06:52 | -35.29072 | 149.19438 | 1908 ft | 120 kts | 171° |
| 2026-04-21 06:53 | -35.29733 | 149.19449 | 1876 ft | 53 kts | 182° |
| 2026-04-21 06:53 | -35.29897 | 149.19452 | 1876 ft | 0 kts | 193° |